Time;durP1;ratioP1;P1;durP2;ratioP2;P2;SDS_P1;SDS_P2;PMS_P1;PMS_P2;Temp;Humidity;BMP_temperature;BMP_pressure;BME280_temperature;BME280_humidity;BME280_pressure;Samples;Min_cycle;Max_cycle;Signal;HPM_P1;HPM_P2
2022/12/26 00:02:47;;;;;;;6.40;3.20;;;12.10;1.00;;;;;;5016909;28;21106;-86
2022/12/26 00:05:13;;;;;;;6.60;3.67;;;12.10;1.00;;;;;;5015711;28;20186;-88
2022/12/26 00:07:39;;;;;;;8.13;3.57;;;12.10;1.00;;;;;;5033416;28;20464;-88
2022/12/26 00:10:05;;;;;;;4.77;3.30;;;12.10;1.00;;;;;;5013149;28;20219;-89
2022/12/26 00:12:30;;;;;;;3.47;2.90;;;12.10;1.00;;;;;;5023274;28;20189;-89
2022/12/26 00:14:56;;;;;;;3.50;3.20;;;12.10;1.00;;;;;;5030280;28;20795;-87
2022/12/26 00:17:28;;;;;;;5.30;3.50;;;12.10;1.00;;;;;;5032793;28;20246;-89
2022/12/26 00:19:53;;;;;;;5.17;3.57;;;12.20;1.00;;;;;;5017654;28;20191;-87
2022/12/26 00:22:19;;;;;;;8.83;4.20;;;12.20;1.00;;;;;;5035279;28;20445;-88
2022/12/26 00:24:46;;;;;;;6.10;3.70;;;12.20;1.00;;;;;;5017417;28;20239;-88
2022/12/26 00:27:22;;;;;;;8.07;4.00;;;12.30;1.00;;;;;;5020722;28;20723;-88
2022/12/26 00:29:48;;;;;;;6.17;3.67;;;12.30;1.00;;;;;;5028893;28;20449;-88
2022/12/26 00:32:13;;;;;;;9.00;4.70;;;12.30;1.00;;;;;;5015790;28;20438;-88
2022/12/26 00:34:39;;;;;;;5.90;3.60;;;12.30;1.00;;;;;;5022667;28;20251;-89
2022/12/26 00:37:05;;;;;;;6.93;3.83;;;12.40;1.00;;;;;;5030808;28;20185;-88
2022/12/26 00:39:31;;;;;;;5.80;3.40;;;12.40;1.00;;;;;;5019983;28;20470;-88
2022/12/26 00:42:02;;;;;;;4.83;3.50;;;12.40;1.00;;;;;;5026443;28;20191;-88
2022/12/26 00:44:27;;;;;;;5.83;3.20;;;12.40;1.00;;;;;;5016541;28;20214;-88
2022/12/26 00:47:05;;;;;;;4.50;3.50;;;12.40;1.00;;;;;;5034135;28;20863;-89
2022/12/26 00:49:31;;;;;;;4.30;3.10;;;12.40;1.00;;;;;;5006810;28;20254;-89
2022/12/26 00:51:57;;;;;;;13.83;4.50;;;12.40;1.00;;;;;;5030576;28;20834;-88
2022/12/26 00:54:22;;;;;;;5.87;3.50;;;12.40;1.00;;;;;;5016859;28;20209;-88
2022/12/26 00:56:48;;;;;;;7.20;3.37;;;12.40;1.00;;;;;;5017114;28;20194;-88
2022/12/26 00:59:13;;;;;;;6.53;3.33;;;12.40;1.00;;;;;;5019184;28;20216;-88
2022/12/26 01:01:39;;;;;;;5.73;3.20;;;12.40;1.00;;;;;;5013709;28;20199;-87
2022/12/26 01:04:26;;;;;;;4.30;3.10;;;12.50;1.00;;;;;;5023819;28;20268;-88
2022/12/26 01:06:52;;;;;;;4.43;3.00;;;12.50;1.00;;;;;;5006495;28;20628;-88
2022/12/26 01:12:09;;;;;;;5.90;4.60;;;12.50;1.00;;;;;;5017574;28;21646;-88
2022/12/26 01:14:35;;;;;;;8.43;3.07;;;12.50;1.00;;;;;;5016360;28;20493;-88
2022/12/26 01:17:00;;;;;;;7.23;3.40;;;12.50;1.00;;;;;;5017196;28;20203;-89
2022/12/26 01:19:26;;;;;;;5.47;3.07;;;12.50;1.00;;;;;;5018543;28;20698;-88
2022/12/26 01:21:52;;;;;;;7.80;3.60;;;12.50;1.00;;;;;;5034528;28;20191;-88
2022/12/26 01:24:18;;;;;;;8.20;3.00;;;12.50;1.00;;;;;;5015781;28;20617;-88
2022/12/26 01:26:45;;;;;;;5.33;3.50;;;12.50;1.00;;;;;;5023519;28;20457;-89
2022/12/26 01:29:10;;;;;;;6.43;3.20;;;12.60;1.00;;;;;;5015937;28;20204;-89
2022/12/26 01:31:36;;;;;;;4.00;2.83;;;12.60;1.00;;;;;;5006570;28;20843;-89
2022/12/26 01:34:01;;;;;;;13.10;4.13;;;12.60;1.00;;;;;;5031821;28;20238;-88
2022/12/26 01:36:27;;;;;;;9.07;3.80;;;12.50;1.00;;;;;;5021642;28;20562;-89
2022/12/26 01:38:52;;;;;;;8.07;3.70;;;12.50;1.00;;;;;;5028037;28;20251;-89
2022/12/26 01:41:18;;;;;;;14.93;3.73;;;12.50;1.00;;;;;;5026307;28;20195;-89
2022/12/26 01:44:18;;;;;;;6.37;3.37;;;12.50;1.00;;;;;;5014483;28;20202;-89
2022/12/26 01:46:44;;;;;;;6.03;3.73;;;12.50;1.00;;;;;;5011599;28;20438;-89
2022/12/26 01:49:20;;;;;;;5.50;4.07;;;12.40;1.00;;;;;;5032190;28;20813;-89
2022/12/26 01:51:59;;;;;;;7.70;3.63;;;12.40;1.00;;;;;;5028176;28;20449;-88
2022/12/26 01:54:29;;;;;;;9.20;3.70;;;12.40;1.00;;;;;;5011286;28;20440;-89
2022/12/26 01:57:03;;;;;;;6.50;3.70;;;12.40;1.00;;;;;;5027039;28;21044;-89
2022/12/26 01:59:31;;;;;;;5.23;3.70;;;12.40;1.00;;;;;;5014732;28;20454;-88
2022/12/26 02:01:59;;;;;;;9.23;4.13;;;12.40;1.00;;;;;;5033194;28;20498;-90
2022/12/26 02:10:59;;;;;;;8.57;4.27;;;12.20;1.00;;;;;;5030707;28;20486;-89
2022/12/26 02:13:46;;;;;;;6.13;4.10;;;12.20;1.00;;;;;;5020215;28;20466;-92
2022/12/26 02:20:09;;;;;;;5.90;2.80;;;12.10;1.00;;;;;;4943399;29;20990;-88
2022/12/26 02:25:49;;;;;;;4.57;3.03;;;12.00;1.00;;;;;;5032845;28;20472;-87
2022/12/26 02:28:43;;;;;;;4.50;3.17;;;12.00;1.00;;;;;;5018673;28;20454;-89
2022/12/26 02:31:32;;;;;;;6.10;3.50;;;12.00;1.00;;;;;;5028662;28;20422;-89
2022/12/26 02:34:39;;;;;;;4.17;3.00;;;12.00;1.00;;;;;;5019536;28;21011;-88
2022/12/26 02:37:40;;;;;;;5.33;3.17;;;12.00;1.00;;;;;;4932513;28;20529;-88
2022/12/26 02:40:15;;;;;;;4.13;2.77;;;12.00;1.00;;;;;;5030170;28;20449;-88
2022/12/26 02:42:57;;;;;;;10.50;4.03;;;12.00;1.00;;;;;;5024373;28;20446;-88
2022/12/26 02:48:54;;;;;;;4.93;3.77;;;12.00;1.00;;;;;;5025279;28;20482;-88
2022/12/26 03:18:26;;;;;;;5.23;4.60;;;12.00;1.00;;;;;;5031281;28;20521;-88
2022/12/26 03:20:55;;;;;;;7.00;4.97;;;12.00;1.00;;;;;;4999232;28;20476;-88
2022/12/26 03:23:38;;;;;;;6.10;5.07;;;12.00;1.00;;;;;;5013209;28;20972;-88
2022/12/26 03:31:49;;;;;;;8.47;5.47;;;12.00;1.00;;;;;;5017735;28;20447;-88
2022/12/26 03:34:25;;;;;;;6.90;5.53;;;12.00;1.00;;;;;;5031160;28;20433;-89
2022/12/26 03:37:30;;;;;;;6.90;5.63;;;12.00;1.00;;;;;;5010921;28;20494;-89
2022/12/26 04:19:41;;;;;;;6.10;5.37;;;11.70;1.00;;;;;;5028316;28;20455;-87
2022/12/26 04:45:28;;;;;;;;;;;;;;;;;;;;;
2022/12/26 04:50:51;;;;;;;7.10;5.50;;;11.60;1.00;;;;;;5049147;23;20496;-87
2022/12/26 04:53:20;;;;;;;7.10;4.90;;;11.60;1.00;;;;;;5015802;28;20790;-88
2022/12/26 04:55:47;;;;;;;7.07;5.20;;;11.60;1.00;;;;;;5035637;28;20459;-88
2022/12/26 04:58:13;;;;;;;7.43;4.90;;;11.60;1.00;;;;;;5026551;28;20499;-87
2022/12/26 05:00:51;;;;;;;6.80;5.37;;;11.60;1.00;;;;;;5013230;28;20517;-87
2022/12/26 05:09:35;;;;;;;5.07;4.50;;;11.60;1.00;;;;;;4996544;28;20515;-87
2022/12/26 05:12:31;;;;;;;7.03;4.27;;;11.60;1.00;;;;;;4985017;28;20430;-87
2022/12/26 05:15:06;;;;;;;5.57;4.80;;;11.60;1.00;;;;;;4994430;28;20467;-87
2022/12/26 05:29:24;;;;;;;8.20;4.70;;;11.70;1.00;;;;;;4996805;28;20481;-88
2022/12/26 05:31:53;;;;;;;5.10;4.50;;;11.70;1.00;;;;;;5014361;28;20497;-87
2022/12/26 05:34:20;;;;;;;9.60;5.30;;;11.70;1.00;;;;;;5007775;28;20969;-88
2022/12/26 05:37:11;;;;;;;5.87;4.80;;;11.70;1.00;;;;;;4995714;28;20438;-87
2022/12/26 05:39:36;;;;;;;6.80;5.60;;;11.70;1.00;;;;;;5014424;28;20441;-87
2022/12/26 05:42:19;;;;;;;6.97;4.90;;;11.70;1.00;;;;;;4997736;28;20511;-88
2022/12/26 05:44:46;;;;;;;7.70;4.67;;;11.60;1.00;;;;;;5005816;28;20211;-88
2022/12/26 05:47:23;;;;;;;6.40;4.77;;;11.60;1.00;;;;;;5009913;28;20431;-88
2022/12/26 05:49:51;;;;;;;7.00;5.10;;;11.60;1.00;;;;;;5006194;28;20443;-86
2022/12/26 05:52:17;;;;;;;7.13;4.07;;;11.60;1.00;;;;;;4993813;28;20873;-88
2022/12/26 05:54:47;;;;;;;8.07;3.97;;;11.60;1.00;;;;;;4984817;28;20446;-87
2022/12/26 05:57:16;;;;;;;4.30;3.90;;;11.50;1.00;;;;;;5007938;28;20183;-88
2022/12/26 05:59:42;;;;;;;8.67;3.60;;;11.50;1.00;;;;;;4997341;28;20449;-88
2022/12/26 06:02:07;;;;;;;3.83;2.80;;;11.50;1.00;;;;;;5009446;28;20992;-87
2022/12/26 06:04:39;;;;;;;3.90;3.10;;;11.50;1.00;;;;;;4997564;28;20303;-88
2022/12/26 06:10:10;;;;;;;8.93;3.57;;;11.50;1.00;;;;;;5132555;23;20833;-88
2022/12/26 06:12:36;;;;;;;3.53;2.60;;;11.50;1.00;;;;;;5016425;28;20476;-87
2022/12/26 06:18:00;;;;;;;4.90;2.60;;;11.50;1.00;;;;;;5034343;28;20453;-88
2022/12/26 06:20:26;;;;;;;3.20;2.37;;;11.50;1.00;;;;;;5015585;28;20445;-88
2022/12/26 06:22:54;;;;;;;4.10;2.50;;;11.40;1.00;;;;;;5015178;28;20180;-87
2022/12/26 06:25:20;;;;;;;5.90;2.50;;;11.40;1.00;;;;;;5016461;28;20291;-87
2022/12/26 06:27:46;;;;;;;3.13;1.90;;;11.40;1.00;;;;;;5016317;28;20529;-87
2022/12/26 06:30:14;;;;;;;3.10;2.10;;;11.40;1.00;;;;;;5032077;28;20190;-88
2022/12/26 06:32:40;;;;;;;2.90;2.30;;;11.40;1.00;;;;;;5034172;28;20187;-88
2022/12/26 06:35:06;;;;;;;2.70;2.03;;;11.40;1.00;;;;;;5015643;28;20925;-88
2022/12/26 06:37:33;;;;;;;2.63;2.20;;;11.40;1.00;;;;;;5006560;28;20501;-88
2022/12/26 06:39:58;;;;;;;3.25;2.30;;;11.40;1.00;;;;;;5253086;23;20486;-87
2022/12/26 06:42:28;;;;;;;2.43;2.10;;;11.40;1.00;;;;;;5039465;28;20454;-87
2022/12/26 06:44:54;;;;;;;3.20;2.30;;;11.30;1.00;;;;;;5021652;28;20196;-87
2022/12/26 06:47:20;;;;;;;3.33;2.37;;;11.40;1.00;;;;;;5018569;28;20450;-88
2022/12/26 06:49:46;;;;;;;2.90;2.60;;;11.30;1.00;;;;;;5015827;28;20210;-88
2022/12/26 06:52:13;;;;;;;2.90;2.60;;;11.30;1.00;;;;;;5033866;28;20437;-87
2022/12/26 06:58:05;;;;;;;3.00;2.70;;;11.40;1.00;;;;;;4969595;28;20501;-88
2022/12/26 07:00:31;;;;;;;4.23;2.63;;;11.30;1.00;;;;;;5015296;28;20425;-88
2022/12/26 07:02:56;;;;;;;2.67;2.20;;;11.40;1.00;;;;;;5015834;28;20834;-87
2022/12/26 07:05:22;;;;;;;2.27;2.00;;;11.30;1.00;;;;;;5011589;28;20217;-88
2022/12/26 07:07:52;;;;;;;2.50;1.70;;;11.30;1.00;;;;;;5013551;28;20281;-88
2022/12/26 07:17:41;;;;;;;1.40;1.00;;;11.20;1.00;;;;;;4915372;29;20397;-87
2022/12/26 07:23:13;;;;;;;1.40;0.80;;;11.10;1.00;;;;;;4933802;29;20464;-88
2022/12/26 07:26:25;;;;;;;1.20;0.90;;;11.00;1.00;;;;;;4917835;29;20528;-88
2022/12/26 07:32:26;;;;;;;1.20;0.80;;;10.90;1.00;;;;;;5010582;28;20975;-87
2022/12/26 07:34:52;;;;;;;1.30;1.00;;;11.00;1.00;;;;;;5023167;28;21022;-87
2022/12/26 07:37:24;;;;;;;2.37;0.97;;;11.00;1.00;;;;;;5010356;28;20444;-86
2022/12/26 07:39:52;;;;;;;1.20;0.90;;;11.00;1.00;;;;;;5025362;28;20625;-87
2022/12/26 07:42:19;;;;;;;1.70;0.93;;;11.10;1.00;;;;;;5020077;28;21019;-88
2022/12/26 07:44:48;;;;;;;5.20;1.33;;;11.10;1.00;;;;;;5018915;28;20516;-88
2022/12/26 07:47:16;;;;;;;1.83;0.90;;;11.00;1.00;;;;;;5013027;28;20491;-87
2022/12/26 07:49:44;;;;;;;1.50;1.00;;;11.10;1.00;;;;;;5018850;28;20526;-88
2022/12/26 07:52:18;;;;;;;1.40;1.00;;;11.10;1.00;;;;;;5016925;28;20929;-88
2022/12/26 07:54:44;;;;;;;1.60;0.90;;;11.10;1.00;;;;;;5012990;28;20509;-88
2022/12/26 07:57:20;;;;;;;10.63;4.53;;;11.10;1.00;;;;;;5008532;28;20615;-88
2022/12/26 07:59:46;;;;;;;2.40;1.50;;;11.10;1.00;;;;;;5023538;28;20441;-88
2022/12/26 08:02:20;;;;;;;1.87;1.27;;;11.20;1.00;;;;;;5016033;28;20498;-88
2022/12/26 08:04:51;;;;;;;3.40;1.27;;;11.20;1.00;;;;;;5016671;28;20212;-88
2022/12/26 08:07:22;;;;;;;1.90;1.17;;;11.20;1.00;;;;;;5017975;28;20436;-88
2022/12/26 08:09:48;;;;;;;2.10;1.23;;;11.20;1.00;;;;;;5011261;28;20527;-88
2022/12/26 08:12:13;;;;;;;2.33;1.37;;;11.20;1.00;;;;;;5017056;28;20515;-88
2022/12/26 08:14:41;;;;;;;2.27;1.30;;;11.30;1.00;;;;;;5015741;28;20182;-88
2022/12/26 08:17:10;;;;;;;1.50;1.10;;;11.30;1.00;;;;;;5023410;28;20198;-87
2022/12/26 08:19:42;;;;;;;2.33;0.97;;;11.30;1.00;;;;;;5024598;28;20988;-87
2022/12/26 08:22:07;;;;;;;3.03;1.30;;;11.30;1.00;;;;;;5023332;28;20555;-88
2022/12/26 08:24:33;;;;;;;1.93;1.27;;;11.30;1.00;;;;;;5016832;28;20567;-87
2022/12/26 08:26:59;;;;;;;1.40;1.17;;;11.40;1.00;;;;;;5017508;28;20190;-88
2022/12/26 08:29:27;;;;;;;1.77;1.30;;;11.40;1.00;;;;;;5015714;28;20206;-88
2022/12/26 08:31:58;;;;;;;3.20;1.53;;;11.50;1.00;;;;;;5023762;28;20221;-87
2022/12/26 08:34:24;;;;;;;3.40;1.50;;;11.50;1.00;;;;;;5023035;28;20816;-87
2022/12/26 08:36:53;;;;;;;2.00;1.43;;;11.60;1.00;;;;;;5025345;28;20449;-87
2022/12/26 08:39:21;;;;;;;8.23;1.67;;;11.60;99.90;;;;;;5017803;28;20214;-87
2022/12/26 08:41:50;;;;;;;2.50;1.43;;;11.70;99.90;;;;;;5016022;28;20461;-88
2022/12/26 08:44:18;;;;;;;2.73;1.20;;;11.70;99.90;;;;;;5024935;28;20458;-86
2022/12/26 08:46:47;;;;;;;5.80;1.50;;;11.70;99.90;;;;;;5023123;28;20470;-88
2022/12/26 08:49:13;;;;;;;2.37;1.30;;;11.80;99.90;;;;;;5016328;28;20469;-87
2022/12/26 08:51:41;;;;;;;4.70;1.10;;;11.80;99.90;;;;;;5032756;28;20424;-87
2022/12/26 08:54:07;;;;;;;5.27;1.40;;;11.70;99.90;;;;;;5033482;28;20722;-86
2022/12/26 08:56:35;;;;;;;4.00;1.67;;;11.70;99.90;;;;;;5012885;28;20425;-88
2022/12/26 08:59:06;;;;;;;1.85;1.27;;;11.70;99.90;;;;;;5021003;28;20440;-87
2022/12/26 09:01:39;;;;;;;4.93;1.27;;;11.80;99.90;;;;;;5019640;28;20193;-89
2022/12/26 09:04:07;;;;;;;2.37;1.27;;;11.80;99.90;;;;;;5028306;28;20457;-88
2022/12/26 09:06:42;;;;;;;4.93;1.27;;;11.80;99.90;;;;;;5001538;28;20803;-88
2022/12/26 09:09:15;;;;;;;5.00;1.80;;;11.80;99.90;;;;;;5011399;28;20494;-88
2022/12/26 09:11:41;;;;;;;2.67;1.20;;;11.90;99.90;;;;;;5007190;28;20484;-88
2022/12/26 09:14:11;;;;;;;4.23;1.40;;;12.00;78.00;;;;;;5028242;28;20461;-88
2022/12/26 09:17:03;;;;;;;2.33;1.20;;;12.10;6.10;;;;;;5010823;28;20878;-86
2022/12/26 09:19:31;;;;;;;6.90;1.27;;;12.10;1.00;;;;;;5016596;28;20457;-87
2022/12/26 09:25:03;;;;;;;1.30;0.90;;;12.20;1.00;;;;;;5027911;28;20499;-87
2022/12/26 09:27:32;;;;;;;3.00;1.30;;;12.20;1.00;;;;;;5016089;28;20461;-87
2022/12/26 09:30:06;;;;;;;2.80;1.43;;;12.20;1.00;;;;;;5027065;28;20443;-88
2022/12/26 09:32:59;;;;;;;4.43;1.93;;;12.20;99.90;;;;;;5028996;28;20502;-87
2022/12/26 09:35:34;;;;;;;2.60;1.10;;;12.20;99.90;;;;;;5012209;28;20439;-88
2022/12/26 09:38:03;;;;;;;4.13;1.13;;;12.10;99.90;;;;;;5023284;28;21019;-87
2022/12/26 09:40:40;;;;;;;3.13;1.30;;;12.10;99.90;;;;;;5020869;28;20454;-88
2022/12/26 09:43:42;;;;;;;2.40;1.20;;;12.10;99.90;;;;;;5016549;28;20472;-88
2022/12/26 09:46:24;;;;;;;2.97;1.10;;;12.20;99.90;;;;;;5014220;28;20446;-88
2022/12/26 09:49:23;;;;;;;2.70;1.37;;;12.40;1.00;;;;;;5028915;28;21245;-87
2022/12/26 09:52:04;;;;;;;;;;;;;;;;;;;;;
2022/12/26 09:54:43;;;;;;;5.67;1.17;;;12.40;1.00;;;;;;5027405;28;20444;-88
2022/12/26 09:57:16;;;;;;;5.37;1.20;;;12.40;1.00;;;;;;5017298;28;20523;-87
2022/12/26 10:00:00;;;;;;;5.00;1.30;;;12.30;99.90;;;;;;5017647;28;20532;-87
2022/12/26 10:02:29;;;;;;;2.70;1.30;;;12.30;99.90;;;;;;5024000;28;20438;-88
2022/12/26 10:05:28;;;;;;;1.73;1.00;;;12.30;99.90;;;;;;5012157;28;20470;-88
2022/12/26 10:08:13;;;;;;;4.13;1.40;;;12.40;99.90;;;;;;5011239;28;20467;-88
2022/12/26 10:11:02;;;;;;;4.30;2.00;;;12.50;1.00;;;;;;5016009;28;20441;-88
2022/12/26 10:14:18;;;;;;;2.60;1.27;;;12.50;99.90;;;;;;5022519;28;20479;-87
2022/12/26 10:17:29;;;;;;;;;;;;;;;;;;;;;
2022/12/26 10:20:37;;;;;;;2.67;1.00;;;12.80;1.00;;;;;;5019471;28;20458;-88
2022/12/26 10:23:20;;;;;;;1.87;1.20;;;12.80;99.90;;;;;;5011844;28;20459;-87
2022/12/26 10:25:57;;;;;;;2.03;1.33;;;12.80;99.90;;;;;;5055307;28;20439;-88
2022/12/26 10:28:47;;;;;;;4.77;1.97;;;12.90;1.00;;;;;;5038952;28;20487;-88
2022/12/26 10:31:17;;;;;;;2.10;1.23;;;13.00;99.90;;;;;;5031406;28;20805;-87
2022/12/26 10:33:58;;;;;;;3.10;1.20;;;13.10;99.90;;;;;;5018348;28;20439;-88
2022/12/26 10:36:50;;;;;;;3.57;1.33;;;13.10;49.60;;;;;;5022292;28;20519;-88
2022/12/26 10:39:49;;;;;;;5.63;1.67;;;13.10;1.00;;;;;;5025566;28;20452;-87
2022/12/26 10:42:43;;;;;;;3.20;1.20;;;13.10;1.00;;;;;;5014607;28;20460;-87
2022/12/26 10:45:42;;;;;;;4.63;1.37;;;12.90;1.00;;;;;;5028304;28;20517;-86
2022/12/26 10:48:14;;;;;;;1.70;0.97;;;12.90;1.00;;;;;;5046162;28;20456;-85
2022/12/26 10:50:45;;;;;;;4.83;1.30;;;12.80;1.00;;;;;;5011104;28;20445;-85
2022/12/26 10:53:39;;;;;;;3.30;1.07;;;12.80;1.00;;;;;;5032321;28;20428;-87
2022/12/26 10:56:10;;;;;;;3.63;2.63;;;12.80;1.00;;;;;;4994412;28;20545;-87
2022/12/26 10:58:57;;;;;;;2.50;1.20;;;12.80;1.00;;;;;;5016152;28;20458;-86
2022/12/26 11:01:46;;;;;;;5.37;1.10;;;12.80;1.00;;;;;;5028807;28;20424;-86
2022/12/26 11:04:29;;;;;;;6.67;1.23;;;12.80;1.00;;;;;;5013740;28;20498;-86
2022/12/26 11:07:08;;;;;;;5.47;1.30;;;12.80;99.90;;;;;;5010805;28;20438;-86
2022/12/26 11:09:44;;;;;;;5.93;1.30;;;12.80;1.00;;;;;;5017271;28;20869;-86
2022/12/26 11:13:03;;;;;;;4.70;1.13;;;12.90;1.00;;;;;;5013057;28;20487;-86
2022/12/26 11:15:59;;;;;;;3.77;1.00;;;13.10;99.90;;;;;;4968459;28;20835;-86
2022/12/26 11:18:45;;;;;;;5.43;0.80;;;13.40;99.90;;;;;;4963424;28;20528;-86
2022/12/26 11:21:19;;;;;;;5.03;1.67;;;13.60;12.90;;;;;;5013771;28;20429;-88
2022/12/26 11:24:11;;;;;;;6.67;1.43;;;13.60;1.00;;;;;;5012403;28;20986;-87
2022/12/26 11:26:48;;;;;;;2.00;1.10;;;13.60;1.00;;;;;;5010687;28;20433;-88
2022/12/26 11:29:24;;;;;;;6.80;1.57;;;13.60;1.00;;;;;;5014423;28;20928;-86
2022/12/26 11:31:59;;;;;;;4.50;1.27;;;14.00;1.00;;;;;;5023393;28;20438;-86
2022/12/26 11:34:56;;;;;;;6.90;1.60;;;15.00;1.00;;;;;;5031484;28;20438;-87
2022/12/26 11:37:44;;;;;;;3.80;1.50;;;15.30;43.30;;;;;;5022069;28;20436;-86
2022/12/26 11:47:33;;;;;;;3.00;0.97;;;15.80;1.00;;;;;;4943289;29;20546;-86
2022/12/26 11:50:35;;;;;;;4.87;1.10;;;15.60;1.00;;;;;;5018093;28;20431;-86
2022/12/26 11:56:34;;;;;;;6.97;1.23;;;16.10;1.00;;;;;;5030354;28;20455;-86
2022/12/26 11:59:23;;;;;;;4.83;1.00;;;16.00;1.00;;;;;;5009701;28;20463;-88
2022/12/26 12:02:26;;;;;;;5.30;1.40;;;15.70;1.00;;;;;;5017496;28;20466;-86
2022/12/26 12:04:55;;;;;;;3.83;1.27;;;15.60;1.00;;;;;;4922495;29;20924;-88
2022/12/26 12:07:39;;;;;;;3.00;1.10;;;15.60;1.00;;;;;;4997474;28;20490;-86
2022/12/26 12:10:28;;;;;;;1.57;1.20;;;15.40;1.00;;;;;;5015239;28;20419;-86
2022/12/26 12:13:12;;;;;;;7.60;1.47;;;15.10;1.00;;;;;;5033459;28;20429;-86
2022/12/26 12:16:23;;;;;;;2.97;1.43;;;14.70;28.60;;;;;;5031981;28;20927;-86
2022/12/26 12:19:17;;;;;;;3.20;1.43;;;14.50;99.90;;;;;;5007635;28;20804;-86
2022/12/26 12:21:53;;;;;;;3.60;1.57;;;14.60;99.90;;;;;;5019999;28;20453;-86
2022/12/26 12:24:46;;;;;;;2.10;1.13;;;14.50;99.90;;;;;;5011460;28;20464;-86
2022/12/26 12:27:46;;;;;;;3.70;1.53;;;14.20;99.90;;;;;;5019477;28;20440;-87
2022/12/26 12:30:14;;;;;;;4.97;1.73;;;14.20;99.90;;;;;;5028579;28;20436;-86
2022/12/26 12:33:25;;;;;;;5.60;2.00;;;14.20;1.00;;;;;;5022448;28;20461;-86
2022/12/26 12:36:23;;;;;;;5.20;1.60;;;14.00;1.00;;;;;;5018577;28;20549;-86
2022/12/26 12:39:34;;;;;;;4.17;1.63;;;13.80;1.00;;;;;;5027864;28;20452;-86
2022/12/26 12:42:18;;;;;;;5.73;1.37;;;13.40;1.00;;;;;;5015322;28;20462;-87
2022/12/26 12:45:25;;;;;;;2.50;1.07;;;12.90;1.00;;;;;;5018851;28;20475;-87
2022/12/26 12:48:22;;;;;;;7.07;3.57;;;12.50;1.00;;;;;;4998220;28;20465;-86
2022/12/26 12:51:09;;;;;;;2.83;1.60;;;12.20;99.90;;;;;;5028272;28;20446;-87
2022/12/26 12:54:01;;;;;;;2.97;1.43;;;12.10;1.00;;;;;;5014440;28;20809;-87
2022/12/26 12:56:31;;;;;;;3.10;2.00;;;12.10;1.00;;;;;;5013770;28;20446;-86
2022/12/26 12:59:04;;;;;;;4.80;1.80;;;12.00;90.70;;;;;;5033051;28;20504;-86
2022/12/26 13:01:43;;;;;;;4.77;1.60;;;12.00;99.90;;;;;;5023651;28;20419;-87
2022/12/26 13:04:28;;;;;;;4.50;1.50;;;12.00;99.90;;;;;;5022306;28;20463;-87
2022/12/26 13:10:38;;;;;;;3.40;2.30;;;11.80;1.00;;;;;;5024679;28;20807;-87
2022/12/26 13:13:34;;;;;;;8.40;1.60;;;11.70;1.00;;;;;;5014380;28;20473;-87
2022/12/26 13:16:21;;;;;;;5.60;2.03;;;11.50;99.90;;;;;;5004685;28;20439;-87
2022/12/26 13:19:48;;;;;;;5.93;1.90;;;11.40;99.90;;;;;;5108305;23;21136;-87
2022/12/26 13:25:47;;;;;;;5.27;1.87;;;11.30;1.00;;;;;;4932489;28;20468;-86
2022/12/26 13:28:45;;;;;;;2.67;1.50;;;11.20;1.00;;;;;;4999068;28;20996;-87
2022/12/26 13:31:22;;;;;;;3.83;1.80;;;11.10;1.00;;;;;;5006289;28;20444;-87
2022/12/26 13:33:53;;;;;;;4.90;1.87;;;11.10;99.90;;;;;;5003200;28;20439;-88
2022/12/26 13:36:48;;;;;;;11.57;2.90;;;11.10;99.90;;;;;;5016410;28;20438;-89
2022/12/26 13:39:34;;;;;;;9.40;3.60;;;11.10;1.00;;;;;;4992132;28;20449;-88
2022/12/26 13:45:48;;;;;;;6.00;3.30;;;11.20;99.90;;;;;;5017463;28;21324;-87
2022/12/26 13:48:31;;;;;;;2.47;2.27;;;11.20;1.00;;;;;;5009532;28;20839;-88
2022/12/26 13:51:02;;;;;;;9.60;3.77;;;11.20;1.00;;;;;;4998206;28;20429;-88
2022/12/26 13:53:32;;;;;;;8.73;3.13;;;11.20;99.90;;;;;;5010542;28;20863;-87
2022/12/26 13:56:06;;;;;;;7.73;3.43;;;11.30;99.90;;;;;;5023984;28;20962;-87
2022/12/26 13:58:54;;;;;;;6.27;3.67;;;11.30;1.00;;;;;;4996507;28;20453;-88
2022/12/26 14:01:25;;;;;;;10.87;4.27;;;11.30;1.00;;;;;;5005117;28;20422;-87
2022/12/26 14:04:39;;;;;;;6.13;4.17;;;11.30;1.00;;;;;;4990192;28;20940;-87
2022/12/26 14:07:37;;;;;;;8.03;3.97;;;11.30;1.00;;;;;;4986580;28;20438;-87
2022/12/26 14:10:27;;;;;;;8.37;3.50;;;11.30;1.00;;;;;;5001246;28;20430;-87
2022/12/26 14:13:35;;;;;;;6.60;3.70;;;11.20;1.00;;;;;;5021113;28;20422;-87
2022/12/26 14:16:12;;;;;;;10.87;4.03;;;11.10;20.80;;;;;;5035867;28;20442;-85
2022/12/26 14:19:15;;;;;;;5.40;3.67;;;11.10;99.90;;;;;;5018802;28;20472;-86
2022/12/26 14:22:18;;;;;;;5.70;4.70;;;11.00;1.00;;;;;;5005723;28;20445;-85
2022/12/26 14:24:58;;;;;;;7.60;4.33;;;10.90;99.90;;;;;;4993227;28;21002;-87
2022/12/26 14:27:43;;;;;;;3.00;2.60;;;10.90;1.00;;;;;;5014978;28;20434;-87
2022/12/26 14:30:32;;;;;;;8.80;2.70;;;10.80;1.00;;;;;;4990772;28;20446;-86
2022/12/26 14:33:27;;;;;;;4.70;2.13;;;10.70;99.90;;;;;;4997099;28;20469;-84
2022/12/26 14:36:28;;;;;;;6.47;2.13;;;10.60;99.90;;;;;;4944588;28;20448;-87
2022/12/26 14:39:11;;;;;;;12.40;3.10;;;10.40;99.90;;;;;;4995938;28;20480;-87
2022/12/26 14:44:53;;;;;;;6.97;2.70;;;10.30;99.90;;;;;;5006686;28;20460;-85
2022/12/26 14:47:52;;;;;;;7.20;2.80;;;10.20;5.60;;;;;;4998337;28;20501;-87
2022/12/26 14:50:43;;;;;;;10.30;2.67;;;10.20;1.00;;;;;;4972164;28;20476;-87
2022/12/26 14:53:26;;;;;;;3.90;2.33;;;10.10;1.00;;;;;;4995239;28;20445;-87
2022/12/26 14:56:10;;;;;;;4.00;2.20;;;10.10;99.90;;;;;;5007756;28;20441;-86
2022/12/26 14:58:46;;;;;;;4.93;1.27;;;10.10;1.00;;;;;;5009219;28;21021;-87
2022/12/26 15:01:11;;;;;;;4.83;1.90;;;10.10;99.90;;;;;;5006772;28;20529;-87
2022/12/26 15:03:40;;;;;;;3.33;1.77;;;10.00;99.90;;;;;;5006024;28;21525;-88
2022/12/26 15:06:41;;;;;;;3.20;1.87;;;9.90;99.90;;;;;;4999102;28;20646;-88
2022/12/26 15:09:17;;;;;;;9.47;2.13;;;9.80;99.90;;;;;;4965167;28;20462;-86
2022/12/26 15:12:51;;;;;;;4.77;1.93;;;9.70;99.90;;;;;;4989986;28;20437;-86
2022/12/26 15:15:43;;;;;;;9.57;2.67;;;9.60;99.90;;;;;;4928330;29;20564;-88
2022/12/26 15:18:50;;;;;;;3.33;2.20;;;9.50;99.90;;;;;;5015873;28;20823;-86
2022/12/26 15:21:54;;;;;;;20.17;12.73;;;9.40;99.90;;;;;;5008302;28;20496;-86
2022/12/26 15:24:28;;;;;;;9.70;4.97;;;9.40;99.90;;;;;;4958953;28;20939;-87
2022/12/26 15:27:31;;;;;;;5.97;2.30;;;9.40;1.00;;;;;;5017349;28;20445;-88
2022/12/26 15:30:04;;;;;;;5.20;2.47;;;9.30;1.00;;;;;;5000750;28;20439;-87
2022/12/26 15:32:35;;;;;;;5.17;2.10;;;9.30;1.00;;;;;;4989335;28;20441;-86
2022/12/26 15:35:23;;;;;;;4.93;3.10;;;9.20;1.00;;;;;;5006298;28;20437;-87
2022/12/26 15:38:16;;;;;;;4.67;2.03;;;9.20;1.00;;;;;;5005942;28;20468;-86
2022/12/26 15:40:50;;;;;;;7.87;2.60;;;9.10;1.00;;;;;;5011103;28;20521;-89
2022/12/26 15:43:34;;;;;;;8.20;3.40;;;9.10;1.00;;;;;;5005147;28;20444;-87
2022/12/26 15:46:06;;;;;;;7.27;2.70;;;9.10;99.90;;;;;;5010073;28;20453;-87
2022/12/26 15:48:47;;;;;;;8.40;3.33;;;9.00;99.90;;;;;;5015833;28;20603;-86
2022/12/26 15:51:42;;;;;;;4.93;2.10;;;9.00;99.90;;;;;;5014773;28;20464;-87
2022/12/26 15:54:07;;;;;;;6.77;3.70;;;9.00;1.00;;;;;;5009763;28;20533;-84
2022/12/26 15:57:12;;;;;;;9.17;4.23;;;9.00;1.00;;;;;;5006537;28;20528;-86
2022/12/26 15:59:55;;;;;;;14.53;4.90;;;8.90;1.00;;;;;;5009200;28;20214;-85
2022/12/26 16:02:35;;;;;;;7.10;4.83;;;8.80;1.00;;;;;;5012889;28;20483;-85
2022/12/26 16:05:09;;;;;;;9.43;5.33;;;8.80;1.00;;;;;;5010366;28;20560;-85
2022/12/26 16:07:44;;;;;;;6.70;4.40;;;8.80;1.00;;;;;;5010268;28;20509;-85
2022/12/26 16:10:25;;;;;;;9.20;4.60;;;8.70;1.00;;;;;;5015331;28;20179;-86
2022/12/26 16:13:21;;;;;;;4.97;3.40;;;8.70;1.00;;;;;;5002726;28;20429;-88
2022/12/26 16:15:48;;;;;;;9.03;4.43;;;8.60;32.50;;;;;;4992088;28;20446;-86
2022/12/26 16:18:16;;;;;;;4.67;2.83;;;8.50;1.00;;;;;;5023028;28;20475;-86
2022/12/26 16:23:36;;;;;;;8.97;3.77;;;8.20;99.90;;;;;;5010443;28;20473;-88
2022/12/26 16:26:02;;;;;;;5.65;3.35;;;8.10;99.90;;;;;;4991996;28;20449;-88
2022/12/26 16:28:35;;;;;;;4.80;3.30;;;7.90;1.00;;;;;;5008228;28;20195;-87
2022/12/26 16:31:02;;;;;;;5.63;3.13;;;7.80;1.00;;;;;;5008092;28;20971;-88
2022/12/26 16:33:42;;;;;;;7.53;3.03;;;7.70;1.00;;;;;;5001575;28;20689;-87
2022/12/26 16:36:12;;;;;;;8.95;3.78;;;7.50;1.00;;;;;;5019677;28;20175;-86
2022/12/26 16:38:38;;;;;;;7.55;3.92;;;7.40;86.10;;;;;;5022649;28;20206;-87
2022/12/26 16:41:21;;;;;;;5.75;3.20;;;7.40;99.90;;;;;;4995385;28;20274;-88
2022/12/26 16:43:53;;;;;;;9.35;5.75;;;7.30;99.90;;;;;;5010980;28;20290;-87
2022/12/26 16:46:22;;;;;;;6.65;3.15;;;7.30;99.90;;;;;;5001900;28;20205;-88
2022/12/26 16:48:54;;;;;;;7.50;2.40;;;7.20;5.10;;;;;;5020818;28;20677;-87
2022/12/26 16:51:43;;;;;;;4.60;2.88;;;7.20;1.00;;;;;;4992975;28;20302;-88
2022/12/26 16:54:17;;;;;;;7.57;2.70;;;7.20;1.00;;;;;;5009521;28;20175;-87
2022/12/26 16:56:46;;;;;;;5.80;2.75;;;7.10;1.00;;;;;;4987672;28;20194;-90
2022/12/26 16:59:23;;;;;;;3.95;2.40;;;7.10;1.00;;;;;;5011753;28;20206;-87
2022/12/26 17:01:52;;;;;;;5.65;2.70;;;7.10;1.00;;;;;;5012068;28;20190;-87
2022/12/26 17:11:12;;;;;;;4.88;3.65;;;7.10;1.00;;;;;;4960440;28;20277;-88